Time;durP1;ratioP1;P1;durP2;ratioP2;P2;SDS_P1;SDS_P2;PMS_P1;PMS_P2;Temp;Humidity;BMP_temperature;BMP_pressure;BME280_temperature;BME280_humidity;BME280_pressure;Samples;Min_cycle;Max_cycle;Signal;HPM_P1;HPM_P2
2022/06/19 00:00:37;;;;;;;3.77;3.47;;;;;16.70;97196.00;;;;5064024;28;20669;-91
2022/06/19 00:03:31;;;;;;;5.33;3.60;;;;;16.40;97199.00;;;;5062769;28;20206;-91
2022/06/19 00:06:20;;;;;;;3.67;3.37;;;;;16.00;97195.00;;;;5062804;28;20226;-91
2022/06/19 00:09:10;;;;;;;4.10;3.80;;;;;16.10;97191.00;;;;5064275;28;20193;-90
2022/06/19 00:12:00;;;;;;;3.90;3.40;;;;;16.00;97185.00;;;;5055969;28;20224;-91
2022/06/19 00:14:49;;;;;;;5.93;3.17;;;;;16.00;97198.00;;;;5068552;28;20200;-91
2022/06/19 00:17:38;;;;;;;6.10;3.87;;;;;16.00;97194.00;;;;5068722;28;20238;-92
2022/06/19 00:20:28;;;;;;;4.47;3.13;;;;;15.70;97196.00;;;;5067027;28;20624;-92
2022/06/19 00:23:17;;;;;;;4.60;3.50;;;;;15.40;97197.00;;;;5063904;28;20673;-90
2022/06/19 00:26:07;;;;;;;3.80;3.50;;;;;15.30;97190.00;;;;5067746;28;20209;-90
2022/06/19 00:28:57;;;;;;;4.17;3.77;;;;;15.60;97194.00;;;;5062549;28;20585;-91
2022/06/19 00:31:46;;;;;;;4.47;4.07;;;;;16.00;97177.00;;;;5068463;28;20342;-91
2022/06/19 00:34:36;;;;;;;4.00;3.70;;;;;16.00;97175.00;;;;5070976;28;20231;-91
2022/06/19 00:37:25;;;;;;;4.53;3.47;;;;;15.90;97173.00;;;;5070076;28;20716;-91
2022/06/19 00:40:15;;;;;;;3.93;3.53;;;;;16.10;97170.00;;;;5064437;28;20204;-90
2022/06/19 00:43:06;;;;;;;5.43;3.60;;;;;16.30;97165.00;;;;5071398;28;20199;-91
2022/06/19 00:46:00;;;;;;;3.90;3.50;;;;;16.00;97161.00;;;;5066085;28;20212;-91
2022/06/19 00:48:49;;;;;;;3.67;3.37;;;;;15.20;97165.00;;;;5056446;28;20321;-90
2022/06/19 00:51:39;;;;;;;5.97;4.10;;;;;15.00;97165.00;;;;5067721;28;20677;-91
2022/06/19 00:54:28;;;;;;;4.83;3.63;;;;;15.50;97157.00;;;;5060716;28;20203;-90
2022/06/19 00:57:18;;;;;;;9.07;3.90;;;;;15.50;97152.00;;;;5069132;28;20220;-91
2022/06/19 01:00:12;;;;;;;3.47;3.27;;;;;14.90;97159.00;;;;5067923;28;20708;-90
2022/06/19 01:03:10;;;;;;;3.17;2.97;;;;;14.60;97153.00;;;;5064937;28;20666;-91
2022/06/19 01:06:00;;;;;;;4.77;3.93;;;;;14.90;97146.00;;;;5063417;28;20204;-90
2022/06/19 01:08:50;;;;;;;3.77;3.47;;;;;15.20;97145.00;;;;5059925;28;20353;-91
2022/06/19 01:11:39;;;;;;;4.20;3.80;;;;;14.90;97147.00;;;;5065331;28;20665;-90
2022/06/19 01:14:29;;;;;;;4.47;3.20;;;;;14.90;97151.00;;;;5053521;28;20224;-90
2022/06/19 01:17:20;;;;;;;3.30;3.00;;;;;14.70;97141.00;;;;5069314;28;20864;-91
2022/06/19 01:20:14;;;;;;;6.03;4.03;;;;;15.00;97151.00;;;;5068002;28;20212;-91
2022/06/19 01:23:09;;;;;;;4.53;3.80;;;;;15.30;97154.00;;;;5063639;28;20200;-91
2022/06/19 01:26:00;;;;;;;7.60;3.50;;;;;15.50;97143.00;;;;5063158;28;20208;-91
2022/06/19 01:28:57;;;;;;;4.00;3.70;;;;;15.50;97145.00;;;;5058053;28;20224;-91
2022/06/19 01:31:50;;;;;;;4.43;4.03;;;;;15.50;97142.00;;;;5064798;28;20342;-91
2022/06/19 01:34:41;;;;;;;5.40;3.97;;;;;15.00;97139.00;;;;5064362;28;20224;-90
2022/06/19 01:37:31;;;;;;;3.97;3.67;;;;;14.80;97144.00;;;;5070470;28;20251;-90
2022/06/19 01:40:23;;;;;;;4.00;3.70;;;;;14.60;97139.00;;;;5062612;28;20211;-90
2022/06/19 01:43:15;;;;;;;4.53;4.13;;;;;14.30;97130.00;;;;5070307;28;20202;-91
2022/06/19 01:46:05;;;;;;;7.33;4.17;;;;;14.20;97138.00;;;;5065704;28;20197;-91
2022/06/19 01:48:54;;;;;;;4.43;4.07;;;;;14.20;97125.00;;;;5064426;28;20209;-91
2022/06/19 01:51:44;;;;;;;4.57;4.17;;;;;14.60;97129.00;;;;5064005;28;20209;-90
2022/06/19 01:54:35;;;;;;;5.47;3.93;;;;;14.90;97127.00;;;;5059403;28;20233;-92
2022/06/19 01:57:25;;;;;;;5.40;4.33;;;;;14.70;97121.00;;;;5070718;28;20223;-92
2022/06/19 02:00:19;;;;;;;3.83;3.53;;;;;14.10;97115.00;;;;5068540;28;20208;-92
2022/06/19 02:03:12;;;;;;;5.93;4.20;;;;;14.60;97112.00;;;;5065105;28;20575;-92
2022/06/19 02:06:02;;;;;;;4.30;3.90;;;;;14.90;97111.00;;;;5065568;28;20214;-91
2022/06/19 02:08:52;;;;;;;4.40;4.00;;;;;14.90;97112.00;;;;5068435;28;20227;-92
2022/06/19 02:11:41;;;;;;;3.60;3.30;;;;;14.70;97113.00;;;;5064654;28;20204;-92
2022/06/19 02:14:31;;;;;;;4.07;3.60;;;;;14.40;97106.00;;;;5054983;28;20228;-93
2022/06/19 02:17:29;;;;;;;4.33;3.90;;;;;14.20;97113.00;;;;5070979;28;20345;-91
2022/06/19 02:20:20;;;;;;;3.40;3.10;;;;;13.90;97110.00;;;;5069086;28;20216;-92
2022/06/19 02:23:09;;;;;;;7.00;6.00;;;;;13.70;97112.00;;;;5064965;28;20578;-92
2022/06/19 02:25:59;;;;;;;3.90;3.60;;;;;14.20;97107.00;;;;5066102;28;20199;-93
2022/06/19 02:28:51;;;;;;;5.03;4.53;;;;;14.30;97103.00;;;;5063170;28;20337;-92
2022/06/19 02:31:42;;;;;;;4.40;4.00;;;;;14.40;97096.00;;;;5071225;28;20214;-92
2022/06/19 02:34:37;;;;;;;4.60;4.20;;;;;14.00;97097.00;;;;5066243;28;20204;-90
2022/06/19 02:37:28;;;;;;;6.33;4.00;;;;;13.90;97087.00;;;;5064421;28;20250;-91
2022/06/19 02:40:26;;;;;;;5.00;3.97;;;;;14.10;97094.00;;;;5069653;28;20206;-92
2022/06/19 02:43:26;;;;;;;4.33;3.93;;;;;14.60;97096.00;;;;5071349;28;20208;-92
2022/06/19 02:46:17;;;;;;;4.57;4.17;;;;;14.70;97111.00;;;;5065866;28;20275;-93
2022/06/19 02:49:06;;;;;;;4.17;3.77;;;;;14.50;97111.00;;;;5062863;28;20203;-91
2022/06/19 02:51:57;;;;;;;5.03;4.50;;;;;14.60;97107.00;;;;5055777;28;20208;-92
2022/06/19 02:54:46;;;;;;;5.23;3.73;;;;;14.40;97099.00;;;;5069830;28;20223;-93
2022/06/19 02:57:36;;;;;;;4.30;3.90;;;;;14.30;97091.00;;;;5067264;28;20233;-93
2022/06/19 03:00:27;;;;;;;4.60;4.20;;;;;14.20;97092.00;;;;5067167;28;20196;-93
2022/06/19 03:03:24;;;;;;;4.53;4.10;;;;;14.20;97093.00;;;;5064875;28;20212;-93
2022/06/19 03:06:13;;;;;;;4.50;4.03;;;;;13.60;97083.00;;;;5060593;28;20212;-92
2022/06/19 03:09:04;;;;;;;3.70;3.23;;;;;13.70;97090.00;;;;5068657;28;20211;-92
2022/06/19 03:11:53;;;;;;;4.30;3.90;;;;;13.90;97089.00;;;;5059005;28;20208;-92
2022/06/19 03:14:44;;;;;;;4.87;4.47;;;;;13.90;97079.00;;;;5065333;28;20228;-92
2022/06/19 03:17:33;;;;;;;4.37;3.57;;;;;13.60;97083.00;;;;5065286;28;20714;-92
2022/06/19 03:20:25;;;;;;;5.33;4.00;;;;;14.10;97081.00;;;;5068779;28;20191;-92
2022/06/19 03:23:14;;;;;;;6.80;4.80;;;;;14.50;97078.00;;;;5067252;28;20783;-94
2022/06/19 03:26:05;;;;;;;5.77;4.37;;;;;14.50;97082.00;;;;5064338;28;20206;-92
2022/06/19 03:28:55;;;;;;;5.03;3.80;;;;;14.30;97080.00;;;;5058761;28;20220;-93
2022/06/19 03:31:44;;;;;;;6.83;3.70;;;;;14.20;97070.00;;;;5068450;28;20212;-92
2022/06/19 03:34:33;;;;;;;4.17;3.87;;;;;14.10;97081.00;;;;5065864;28;20216;-93
2022/06/19 03:37:23;;;;;;;4.67;3.97;;;;;14.00;97074.00;;;;5061394;28;20235;-92
2022/06/19 03:40:13;;;;;;;4.73;4.27;;;;;13.40;97071.00;;;;5060549;28;20219;-92
2022/06/19 03:43:03;;;;;;;4.53;4.13;;;;;13.60;97072.00;;;;5069537;28;20215;-92
2022/06/19 03:45:58;;;;;;;5.13;4.03;;;;;14.10;97063.00;;;;5063661;28;20211;-92
2022/06/19 03:48:49;;;;;;;6.63;4.57;;;;;14.30;97068.00;;;;5066124;28;20234;-92
2022/06/19 03:51:39;;;;;;;4.20;3.90;;;;;13.90;97064.00;;;;5064531;28;20208;-93
2022/06/19 03:54:28;;;;;;;4.17;3.93;;;;;14.00;97060.00;;;;5068663;28;20227;-92
2022/06/19 03:57:17;;;;;;;5.00;4.53;;;;;14.30;97057.00;;;;5057978;28;20644;-91
2022/06/19 04:00:11;;;;;;;5.10;4.20;;;;;14.60;97052.00;;;;5066684;28;20203;-92
2022/06/19 04:03:01;;;;;;;5.47;4.13;;;;;14.60;97045.00;;;;5061258;28;20677;-91
2022/06/19 04:05:52;;;;;;;4.90;4.40;;;;;14.80;97049.00;;;;5074684;28;20309;-92
2022/06/19 04:08:41;;;;;;;4.90;4.50;;;;;14.70;97054.00;;;;5078422;28;20613;-91
2022/06/19 04:11:31;;;;;;;4.13;3.83;;;;;14.50;97042.00;;;;5074044;28;20581;-90
2022/06/19 04:14:21;;;;;;;4.33;3.97;;;;;14.70;97029.00;;;;5062202;28;20238;-92
2022/06/19 04:17:11;;;;;;;4.40;4.00;;;;;14.70;97024.00;;;;5084571;28;20226;-91
2022/06/19 04:20:00;;;;;;;7.20;4.13;;;;;14.70;97023.00;;;;5073124;28;20212;-91
2022/06/19 04:22:50;;;;;;;6.20;4.50;;;;;14.90;97026.00;;;;5072460;28;20557;-91
2022/06/19 04:25:42;;;;;;;4.63;3.27;;;;;15.00;97019.00;;;;5074180;28;20200;-91
2022/06/19 04:28:32;;;;;;;4.70;3.87;;;;;15.30;97028.00;;;;5074514;28;20227;-91
2022/06/19 04:31:22;;;;;;;5.03;4.20;;;;;15.10;97015.00;;;;5074096;28;20200;-91
2022/06/19 04:34:12;;;;;;;7.67;5.00;;;;;15.10;97015.00;;;;5073134;28;20228;-91
2022/06/19 04:37:01;;;;;;;5.40;4.10;;;;;15.10;97019.00;;;;5065858;28;20245;-91
2022/06/19 04:39:51;;;;;;;4.50;4.10;;;;;15.20;97026.00;;;;5067390;28;20218;-90
2022/06/19 04:42:40;;;;;;;7.33;4.13;;;;;15.20;97024.00;;;;5068833;28;20210;-91
2022/06/19 04:45:29;;;;;;;4.40;4.00;;;;;15.40;97032.00;;;;5074568;28;20188;-90
2022/06/19 04:48:19;;;;;;;6.93;4.60;;;;;15.50;97026.00;;;;5074519;28;20235;-91
2022/06/19 04:51:10;;;;;;;4.73;4.13;;;;;15.90;97020.00;;;;5066156;28;20200;-92
2022/06/19 04:53:59;;;;;;;4.10;3.70;;;;;16.00;97012.00;;;;5079115;28;20210;-90
2022/06/19 04:56:48;;;;;;;4.57;4.17;;;;;16.20;97014.00;;;;5067558;28;20219;-90
2022/06/19 04:59:37;;;;;;;4.63;3.80;;;14.90;99.90;16.70;97011.00;;;;5071415;28;20208;-91
2022/06/19 05:02:26;;;;;;;9.00;4.13;;;14.90;99.90;16.80;97015.00;;;;5073550;28;20188;-91
2022/06/19 05:05:20;;;;;;;5.27;4.77;;;15.10;99.90;16.90;97010.00;;;;5089258;28;20206;-91
2022/06/19 05:08:10;;;;;;;5.00;4.60;;;15.30;99.90;17.20;97023.00;;;;5078023;28;20228;-91
2022/06/19 05:11:00;;;;;;;4.63;4.23;;;15.50;99.90;17.40;97012.00;;;;5061766;28;20196;-92
2022/06/19 05:13:49;;;;;;;5.63;4.63;;;15.70;99.90;17.30;97011.00;;;;5070106;28;20197;-92
2022/06/19 05:16:38;;;;;;;4.97;4.10;;;15.80;99.90;17.30;97009.00;;;;5079803;28;20616;-91
2022/06/19 05:19:27;;;;;;;4.27;3.87;;;16.00;99.90;16.90;97012.00;;;;5061459;28;20196;-92
2022/06/19 05:22:16;;;;;;;6.07;4.97;;;16.00;99.90;17.30;97004.00;;;;5077938;28;20202;-91
2022/06/19 05:25:09;;;;;;;5.27;4.77;;;16.10;99.90;17.90;97007.00;;;;5081897;28;20207;-91
2022/06/19 05:27:58;;;;;;;4.93;4.53;;;16.30;99.90;18.20;97007.00;;;;5077295;28;20308;-91
2022/06/19 05:30:47;;;;;;;4.73;4.30;;;16.40;99.90;18.20;97011.00;;;;5062376;28;20200;-91
2022/06/19 05:33:36;;;;;;;10.83;5.20;;;16.60;99.90;18.40;97014.00;;;;5074323;28;20801;-91
2022/06/19 05:36:28;;;;;;;5.90;5.00;;;16.70;99.90;18.90;97012.00;;;;5073832;28;20614;-91
2022/06/19 05:39:17;;;;;;;5.73;4.97;;;16.90;99.90;19.20;97022.00;;;;5079643;28;20200;-92
2022/06/19 05:42:08;;;;;;;5.83;5.33;;;17.10;99.90;19.20;97016.00;;;;5065284;28;20217;-91
2022/06/19 05:44:57;;;;;;;5.33;4.83;;;17.40;99.90;19.40;97013.00;;;;5087753;28;20212;-94
2022/06/19 05:47:47;;;;;;;8.50;5.00;;;17.50;99.90;19.30;97016.00;;;;5081064;28;20232;-93
2022/06/19 05:50:36;;;;;;;5.17;4.77;;;17.70;99.90;19.70;97014.00;;;;5071274;28;20206;-93
2022/06/19 05:53:27;;;;;;;5.20;4.70;;;17.90;99.90;19.60;97015.00;;;;5081678;28;20196;-93
2022/06/19 05:56:17;;;;;;;6.00;5.40;;;17.90;99.90;19.70;97010.00;;;;5090412;28;20211;-94
2022/06/19 05:59:08;;;;;;;6.87;5.07;;;18.30;99.90;20.00;97004.00;;;;5074625;28;20207;-90
2022/06/19 06:01:57;;;;;;;5.93;4.93;;;18.20;99.90;19.90;97002.00;;;;5078598;28;20218;-91
2022/06/19 06:04:46;;;;;;;5.20;4.70;;;18.30;99.90;20.00;96990.00;;;;5073450;28;20211;-91
2022/06/19 06:07:36;;;;;;;7.93;4.97;;;18.40;99.90;20.40;96993.00;;;;5073256;28;20220;-92
2022/06/19 06:10:25;;;;;;;4.67;4.27;;;18.50;99.90;20.60;96983.00;;;;5070864;28;20200;-93
2022/06/19 06:13:14;;;;;;;7.27;5.50;;;18.60;99.90;20.00;96983.00;;;;5069302;28;20200;-93
2022/06/19 06:16:06;;;;;;;5.23;4.70;;;18.70;99.90;20.20;96990.00;;;;5072897;28;20227;-92
2022/06/19 06:18:55;;;;;;;5.70;4.63;;;18.80;99.90;20.70;96978.00;;;;5075459;28;20223;-89
2022/06/19 06:21:44;;;;;;;5.77;4.83;;;18.90;99.90;20.80;96988.00;;;;5074555;28;20205;-92
2022/06/19 06:24:34;;;;;;;5.57;5.07;;;19.00;99.90;20.80;96985.00;;;;5073051;28;20222;-91
2022/06/19 06:27:23;;;;;;;10.73;5.97;;;19.10;99.90;20.90;96999.00;;;;5066426;28;20239;-92
2022/06/19 06:30:14;;;;;;;6.13;5.17;;;19.30;99.90;21.30;96998.00;;;;5066368;28;20202;-92
2022/06/19 06:33:05;;;;;;;6.50;5.40;;;19.40;99.90;21.70;97002.00;;;;5071583;28;20204;-91
2022/06/19 06:35:55;;;;;;;5.60;5.00;;;19.60;99.90;21.90;97005.00;;;;5063660;28;20234;-92
2022/06/19 06:38:44;;;;;;;5.40;4.80;;;19.70;99.90;22.00;97004.00;;;;5066820;28;20581;-91
2022/06/19 06:41:33;;;;;;;6.33;5.00;;;19.90;99.90;22.20;97006.00;;;;5073020;28;20695;-90
2022/06/19 06:44:22;;;;;;;5.37;4.87;;;20.20;99.90;22.60;97013.00;;;;5072017;28;20211;-92
2022/06/19 06:47:11;;;;;;;4.57;4.17;;;20.30;99.90;22.90;97001.00;;;;5069949;28;20224;-90
2022/06/19 06:50:01;;;;;;;4.80;4.40;;;20.50;99.90;23.20;97003.00;;;;5058079;28;20211;-90
2022/06/19 06:52:50;;;;;;;5.57;4.37;;;20.80;99.90;23.40;96996.00;;;;5071286;28;20203;-90
2022/06/19 06:55:40;;;;;;;7.30;4.53;;;21.00;99.90;23.30;97002.00;;;;5073557;28;20219;-85
2022/06/19 06:58:29;;;;;;;4.60;4.27;;;21.20;99.90;23.40;96989.00;;;;5065798;28;20232;-86
2022/06/19 07:01:20;;;;;;;6.20;4.90;;;21.40;99.90;23.70;96982.00;;;;5077479;28;20200;-87
2022/06/19 07:04:10;;;;;;;6.00;4.47;;;21.50;99.90;23.90;96974.00;;;;5077192;28;20200;-88
2022/06/19 07:07:00;;;;;;;4.30;4.00;;;21.70;99.90;24.00;96977.00;;;;5067079;28;20585;-87
2022/06/19 07:09:49;;;;;;;4.00;3.70;;;21.80;99.90;24.30;96972.00;;;;5070121;28;20211;-86
2022/06/19 07:12:38;;;;;;;3.87;3.57;;;22.00;99.90;24.60;96984.00;;;;5064496;28;20196;-86
2022/06/19 07:15:27;;;;;;;5.03;4.40;;;22.20;99.90;24.80;96985.00;;;;5075065;28;20226;-86
2022/06/19 07:18:16;;;;;;;3.80;3.50;;;22.40;99.90;25.00;96976.00;;;;5073268;28;20231;-85
2022/06/19 07:21:05;;;;;;;5.67;3.73;;;22.60;99.90;25.00;96974.00;;;;5061626;28;20200;-83
2022/06/19 07:23:57;;;;;;;4.40;3.47;;;22.70;99.90;25.10;96978.00;;;;5067342;28;20701;-83
2022/06/19 07:26:46;;;;;;;10.83;3.93;;;22.90;99.90;25.20;96974.00;;;;5069432;28;20225;-84
2022/06/19 07:29:35;;;;;;;4.23;3.47;;;23.00;99.90;25.40;96971.00;;;;5068335;28;20192;-86
2022/06/19 07:32:24;;;;;;;7.10;4.50;;;23.20;99.90;25.20;96972.00;;;;5070272;28;20200;-84
2022/06/19 07:35:13;;;;;;;3.97;3.43;;;23.30;99.90;25.60;96968.00;;;;5071630;28;20200;-85
2022/06/19 07:38:01;;;;;;;9.07;4.40;;;23.40;99.90;25.90;96970.00;;;;5072718;28;20230;-82
2022/06/19 07:40:51;;;;;;;5.93;3.80;;;23.50;99.90;26.20;96974.00;;;;5071721;28;20207;-85
2022/06/19 07:43:43;;;;;;;9.00;4.60;;;23.70;99.90;26.00;96969.00;;;;5063777;28;20204;-86
2022/06/19 07:46:32;;;;;;;5.40;3.73;;;23.90;99.90;26.40;96965.00;;;;5071784;28;20202;-85
2022/06/19 07:52:27;;;;;;;6.63;3.97;;;24.20;99.90;26.50;96956.00;;;;5072122;28;20610;-85
2022/06/19 07:55:19;;;;;;;6.10;4.23;;;24.40;99.90;26.50;96960.00;;;;5062856;28;20214;-86
2022/06/19 07:58:09;;;;;;;11.60;4.17;;;24.50;99.90;26.30;96949.00;;;;5072948;28;20231;-87
2022/06/19 08:00:58;;;;;;;7.87;3.67;;;24.50;99.90;26.70;96943.00;;;;5073640;28;20219;-85
2022/06/19 08:03:47;;;;;;;4.43;3.93;;;24.60;99.90;26.70;96946.00;;;;5065017;28;20568;-86
2022/06/19 08:06:36;;;;;;;2.97;2.77;;;24.60;99.90;26.70;96940.00;;;;5073833;28;20215;-84
2022/06/19 08:09:25;;;;;;;3.83;3.43;;;24.60;99.90;26.60;96943.00;;;;5072413;28;20200;-83
2022/06/19 08:12:14;;;;;;;8.37;4.50;;;24.70;99.90;26.90;96934.00;;;;5068426;28;20207;-85
2022/06/19 08:15:05;;;;;;;4.17;2.93;;;24.80;99.90;27.30;96944.00;;;;5070848;28;20187;-83
2022/06/19 08:17:54;;;;;;;4.93;3.63;;;24.90;99.90;26.90;96932.00;;;;5069572;28;20250;-84
2022/06/19 08:20:43;;;;;;;2.80;2.60;;;25.10;99.90;27.40;96946.00;;;;5056972;28;20213;-84
2022/06/19 08:23:32;;;;;;;5.13;3.43;;;25.20;99.90;27.80;96942.00;;;;5060386;28;20212;-85
2022/06/19 08:26:21;;;;;;;5.13;3.37;;;25.40;99.90;28.00;96947.00;;;;5076715;28;20197;-88
2022/06/19 08:29:10;;;;;;;4.07;3.67;;;25.60;99.90;27.90;96943.00;;;;5083813;28;20204;-89
2022/06/19 08:32:01;;;;;;;3.83;3.23;;;25.70;99.90;27.90;96936.00;;;;5078045;28;20206;-85
2022/06/19 08:34:50;;;;;;;5.10;3.57;;;25.80;99.90;28.20;96932.00;;;;5083526;28;20590;-88
2022/06/19 08:37:41;;;;;;;4.20;3.60;;;25.90;99.90;28.20;96927.00;;;;5081571;28;20776;-88
2022/06/19 08:40:56;;;;;;;5.20;3.43;;;26.00;99.90;28.10;96928.00;;;;5082152;28;20207;-87
2022/06/19 08:44:35;;;;;;;3.40;3.10;;;26.20;99.50;28.00;96927.00;;;;5082624;28;20198;-88
2022/06/19 08:47:47;;;;;;;4.40;3.00;;;26.20;97.90;26.70;96907.00;;;;5073366;28;20365;-88
2022/06/19 08:50:49;;;;;;;3.40;2.80;;;25.90;97.10;27.70;96928.00;;;;5079529;28;20205;-88
2022/06/19 08:54:03;;;;;;;2.53;2.33;;;25.90;97.00;27.30;96922.00;;;;5079064;28;20231;-88
2022/06/19 08:57:01;;;;;;;3.50;2.73;;;25.80;95.00;27.70;96931.00;;;;5074928;28;20237;-89
2022/06/19 09:00:05;;;;;;;5.63;2.77;;;25.80;95.80;27.70;96922.00;;;;5077600;28;20200;-88
2022/06/19 09:03:08;;;;;;;4.43;3.13;;;26.00;95.80;27.80;96914.00;;;;5076932;28;20243;-88
2022/06/19 09:06:05;;;;;;;6.03;3.17;;;26.00;95.00;28.20;96920.00;;;;5079346;28;20639;-89
2022/06/19 09:09:33;;;;;;;6.23;3.07;;;26.10;96.00;28.20;96920.00;;;;5082127;28;20201;-88
2022/06/19 09:12:40;;;;;;;4.67;3.27;;;26.30;94.60;28.50;96921.00;;;;5066514;28;20209;-88
2022/06/19 09:15:37;;;;;;;3.60;3.23;;;26.40;93.40;28.10;96912.00;;;;5084374;28;20218;-88
2022/06/19 09:18:42;;;;;;;5.77;2.73;;;26.50;92.80;28.30;96920.00;;;;5082937;28;20235;-88
2022/06/19 09:22:01;;;;;;;3.43;2.80;;;26.50;92.30;28.60;96918.00;;;;5083380;28;20205;-89
2022/06/19 09:25:09;;;;;;;2.90;2.60;;;26.70;91.90;29.10;96924.00;;;;5077103;28;20202;-91
2022/06/19 09:28:06;;;;;;;2.70;2.50;;;27.20;92.40;29.30;96905.00;;;;5070649;28;20237;-91
2022/06/19 09:31:07;;;;;;;3.07;2.30;;;26.40;92.00;29.50;96908.00;;;;5065381;28;20235;-92
2022/06/19 09:34:05;;;;;;;2.70;2.50;;;27.30;90.80;29.70;96905.00;;;;5072752;28;20199;-90
2022/06/19 09:37:01;;;;;;;2.67;2.47;;;27.40;90.00;29.30;96914.00;;;;5063697;28;20231;-90
2022/06/19 09:39:58;;;;;;;3.17;2.60;;;27.50;86.20;29.90;96912.00;;;;5061992;28;20850;-89
2022/06/19 09:42:56;;;;;;;5.13;2.60;;;27.60;90.60;29.80;96893.00;;;;5060276;28;20215;-90
2022/06/19 09:45:53;;;;;;;2.80;2.37;;;27.80;90.40;29.00;96891.00;;;;5056213;28;20617;-89
2022/06/19 09:48:51;;;;;;;7.70;2.97;;;27.70;85.10;29.80;96889.00;;;;5064090;28;20220;-90
2022/06/19 09:51:48;;;;;;;3.57;3.20;;;27.80;86.70;29.10;96887.00;;;;5073406;28;20669;-92
2022/06/19 09:54:48;;;;;;;4.30;2.67;;;27.70;87.10;30.30;96896.00;;;;5068311;28;20259;-87
2022/06/19 09:57:45;;;;;;;4.73;3.07;;;27.90;84.70;30.60;96888.00;;;;5060904;28;20222;-88
2022/06/19 10:00:39;;;;;;;2.33;2.23;;;28.10;85.60;29.30;96890.00;;;;5061642;28;20717;-89
2022/06/19 10:03:47;;;;;;;2.43;2.23;;;28.20;82.30;29.50;96880.00;;;;5057182;28;20395;-89
2022/06/19 10:06:43;;;;;;;4.07;2.63;;;28.10;84.00;30.40;96879.00;;;;5060533;28;20235;-86
2022/06/19 10:09:37;;;;;;;8.10;3.93;;;28.20;81.80;29.50;96868.00;;;;5067032;28;20698;-88
2022/06/19 10:12:31;;;;;;;2.90;2.50;;;28.20;82.60;30.80;96868.00;;;;5069555;28;20596;-88
2022/06/19 10:15:30;;;;;;;6.40;3.33;;;28.30;84.90;29.10;96850.00;;;;5060874;28;20210;-87
2022/06/19 10:18:27;;;;;;;5.63;3.20;;;28.40;81.30;30.30;96859.00;;;;5061047;28;20238;-88
2022/06/19 10:24:47;;;;;;;3.47;3.13;;;28.30;83.80;29.00;96849.00;;;;5063457;28;20207;-87
2022/06/19 10:27:47;;;;;;;3.83;3.07;;;28.20;82.50;29.50;96837.00;;;;5057574;28;20451;-86
2022/06/19 10:30:46;;;;;;;5.20;3.33;;;28.10;80.90;30.80;96837.00;;;;5054724;28;20215;-86
2022/06/19 10:33:51;;;;;;;4.27;3.53;;;28.40;84.00;31.30;96831.00;;;;5058775;28;20209;-86
2022/06/19 10:36:49;;;;;;;5.50;3.30;;;28.70;85.20;31.80;96818.00;;;;5061737;28;20214;-85
2022/06/19 10:39:59;;;;;;;6.83;3.97;;;29.10;84.20;30.10;96807.00;;;;5060872;28;20212;-86
2022/06/19 10:43:05;;;;;;;6.70;3.00;;;29.10;80.10;31.70;96810.00;;;;5057337;28;20226;-85
2022/06/19 10:45:58;;;;;;;3.93;2.60;;;29.30;81.40;32.70;96811.00;;;;5063956;28;20558;-87
2022/06/19 10:48:57;;;;;;;5.30;3.60;;;29.60;81.90;32.70;96810.00;;;;5062865;28;20748;-88
2022/06/19 10:51:55;;;;;;;7.37;3.17;;;29.90;81.00;33.30;96802.00;;;;5060772;28;20216;-88
2022/06/19 10:55:11;;;;;;;3.80;2.90;;;30.30;80.90;33.10;96801.00;;;;5069585;28;20218;-88
2022/06/19 10:58:15;;;;;;;7.37;3.60;;;30.60;78.80;33.30;96803.00;;;;5063682;28;20225;-87
2022/06/19 11:01:08;;;;;;;4.68;3.28;;;30.80;79.40;33.10;96807.00;;;;5065077;28;20210;-87
2022/06/19 11:04:10;;;;;;;4.65;2.75;;;30.80;74.50;31.70;96796.00;;;;5061304;28;20935;-86
2022/06/19 11:07:05;;;;;;;3.85;2.60;;;30.80;73.80;32.40;96792.00;;;;5061859;28;20231;-87
2022/06/19 11:10:00;;;;;;;3.78;2.80;;;30.70;72.70;33.00;96783.00;;;;5066031;28;20195;-88
2022/06/19 11:12:56;;;;;;;4.97;3.00;;;30.70;73.10;33.20;96785.00;;;;5063432;28;20649;-88
2022/06/19 11:15:48;;;;;;;10.10;3.80;;;30.90;73.30;32.50;96766.00;;;;5058200;28;20203;-87
2022/06/19 11:18:47;;;;;;;4.80;3.67;;;31.10;74.20;33.30;96762.00;;;;5061207;28;20242;-87
2022/06/19 11:21:40;;;;;;;6.00;4.00;;;31.00;73.30;33.60;96768.00;;;;5057283;28;20211;-86
2022/06/19 11:24:33;;;;;;;11.65;5.65;;;31.10;76.00;34.40;96772.00;;;;5067810;28;20590;-85
2022/06/19 11:27:26;;;;;;;3.40;3.10;;;31.40;74.80;35.00;96762.00;;;;5062764;28;20215;-85
2022/06/19 11:30:16;;;;;;;10.27;3.65;;;31.80;71.90;34.90;96754.00;;;;5054764;28;20592;-86
2022/06/19 11:33:10;;;;;;;6.85;4.30;;;32.00;69.50;35.10;96746.00;;;;5061414;28;20209;-88
2022/06/19 11:36:06;;;;;;;8.23;4.40;;;32.20;70.60;35.60;96751.00;;;;5059564;28;20230;-86
2022/06/19 11:38:55;;;;;;;4.60;2.97;;;32.50;70.90;35.00;96745.00;;;;5058784;28;21932;-86
2022/06/19 11:41:44;;;;;;;7.97;3.20;;;32.70;68.50;34.30;96735.00;;;;5059111;28;20210;-87
2022/06/19 11:44:34;;;;;;;10.52;4.55;;;32.50;66.70;35.60;96718.00;;;;5053357;28;20207;-88
2022/06/19 11:47:33;;;;;;;5.22;2.78;;;32.60;69.40;35.00;96718.00;;;;5055256;28;20731;-85
2022/06/19 11:50:27;;;;;;;3.30;2.70;;;32.70;68.90;33.60;96718.00;;;;5063978;28;20231;-89
2022/06/19 11:53:22;;;;;;;4.55;2.90;;;32.40;66.30;35.30;96721.00;;;;5069948;28;20207;-90
2022/06/19 11:56:22;;;;;;;6.45;3.15;;;32.50;68.50;36.20;96723.00;;;;5064026;28;20217;-91
2022/06/19 11:59:39;;;;;;;3.13;2.83;;;32.80;68.90;33.40;96721.00;;;;5058819;28;20238;-92
2022/06/19 12:02:33;;;;;;;6.22;3.97;;;32.70;62.60;34.40;96722.00;;;;5053327;28;20589;-91
2022/06/19 12:05:28;;;;;;;6.38;2.50;;;32.40;63.20;35.80;96724.00;;;;5059276;28;20684;-90
2022/06/19 12:08:24;;;;;;;3.83;2.85;;;32.60;66.40;36.50;96724.00;;;;5056545;28;20242;-92
2022/06/19 12:11:16;;;;;;;6.00;2.58;;;33.00;66.80;36.70;96723.00;;;;5058540;28;20215;-90
2022/06/19 12:14:07;;;;;;;4.05;2.20;;;33.40;64.90;36.70;96715.00;;;;5060345;28;20692;-91
2022/06/19 12:17:16;;;;;;;2.80;2.60;;;33.80;63.00;37.10;96715.00;;;;5066137;28;20696;-91
2022/06/19 12:20:24;;;;;;;5.90;2.88;;;34.00;62.50;37.40;96703.00;;;;5065603;28;20207;-93
2022/06/19 12:23:22;;;;;;;3.97;2.75;;;34.20;61.80;37.30;96714.00;;;;5061747;28;20439;-92
2022/06/19 12:26:19;;;;;;;5.55;2.60;;;34.50;62.20;37.60;96705.00;;;;5065211;28;20204;-91
2022/06/19 12:29:19;;;;;;;7.07;2.78;;;34.70;61.00;37.20;96699.00;;;;5067250;28;20227;-90
2022/06/19 12:32:53;;;;;;;7.13;3.00;;;34.80;59.00;38.10;96708.00;;;;5061579;28;20206;-91
2022/06/19 12:35:48;;;;;;;6.60;2.80;;;34.90;59.60;37.60;96696.00;;;;5062440;28;20680;-91
2022/06/19 12:38:38;;;;;;;5.13;2.85;;;35.00;58.90;37.70;96692.00;;;;5069570;28;20641;-89
2022/06/19 12:41:51;;;;;;;5.75;3.65;;;35.10;58.60;38.10;96699.00;;;;5056079;28;20225;-90
2022/06/19 12:45:02;;;;;;;7.18;2.75;;;35.30;58.90;37.70;96695.00;;;;5056362;28;20200;-90
2022/06/19 12:48:07;;;;;;;2.92;2.47;;;35.30;58.00;37.90;96691.00;;;;5058748;28;20227;-90
2022/06/19 12:51:04;;;;;;;4.97;3.00;;;35.40;56.50;37.70;96690.00;;;;5057558;28;20207;-90
2022/06/19 12:54:52;;;;;;;4.78;2.70;;;35.30;54.30;33.30;96679.00;;;;5059701;28;20196;-90
2022/06/19 12:58:14;;;;;;;5.57;2.70;;;34.40;54.60;35.20;96686.00;;;;5058987;28;20224;-90
2022/06/19 13:01:06;;;;;;;5.32;3.75;;;33.70;57.10;36.00;96682.00;;;;5060737;28;20218;-91
2022/06/19 13:04:20;;;;;;;7.10;2.72;;;33.70;57.70;34.60;96679.00;;;;5061107;28;20204;-87
2022/06/19 13:07:38;;;;;;;6.10;3.13;;;33.60;57.50;33.70;96675.00;;;;5064497;28;20640;-84
2022/06/19 13:10:49;;;;;;;4.93;2.88;;;33.40;56.10;35.60;96674.00;;;;5066761;28;20204;-87
2022/06/19 13:14:24;;;;;;;6.47;3.08;;;33.30;57.80;35.70;96670.00;;;;5062836;28;20211;-88
2022/06/19 13:17:26;;;;;;;6.65;3.63;;;33.50;57.70;36.70;96660.00;;;;5065477;28;20302;-88
2022/06/19 13:20:33;;;;;;;10.63;2.90;;;33.80;57.70;34.90;96660.00;;;;5062704;28;20215;-88
2022/06/19 13:23:32;;;;;;;4.50;3.08;;;34.10;55.70;36.30;96657.00;;;;5067963;28;20191;-87
2022/06/19 13:30:04;;;;;;;6.07;2.38;;;34.10;56.30;35.70;96653.00;;;;5065277;28;20238;-88
2022/06/19 13:33:09;;;;;;;9.55;2.50;;;34.00;56.60;34.00;96644.00;;;;5066966;28;21043;-89
2022/06/19 13:36:06;;;;;;;3.90;2.60;;;33.70;56.90;34.40;96650.00;;;;5059260;28;20294;-88
2022/06/19 13:39:09;;;;;;;4.72;3.00;;;33.40;56.70;34.10;96641.00;;;;5059477;28;20218;-87